sensor_id;sensor_type;location;lat;lon;timestamp;P1;durP1;ratioP1;P2;durP2;ratioP2
12367;SDS011;6248;49.812;6.620;2022-12-29T00:00:17;3.23;;;2.10;;
12367;SDS011;6248;49.812;6.620;2022-12-29T00:02:44;2.83;;;2.20;;
12367;SDS011;6248;49.812;6.620;2022-12-29T00:05:11;2.97;;;2.10;;
12367;SDS011;6248;49.812;6.620;2022-12-29T00:07:40;3.90;;;2.00;;
12367;SDS011;6248;49.812;6.620;2022-12-29T00:10:07;5.50;;;1.90;;
12367;SDS011;6248;49.812;6.620;2022-12-29T00:12:34;2.37;;;1.60;;
12367;SDS011;6248;49.812;6.620;2022-12-29T00:15:19;1.80;;;1.70;;
12367;SDS011;6248;49.812;6.620;2022-12-29T00:18:04;1.73;;;1.63;;
12367;SDS011;6248;49.812;6.620;2022-12-29T00:20:32;3.63;;;1.70;;
12367;SDS011;6248;49.812;6.620;2022-12-29T00:23:19;1.70;;;1.50;;
12367;SDS011;6248;49.812;6.620;2022-12-29T00:26:05;1.70;;;1.60;;
12367;SDS011;6248;49.812;6.620;2022-12-29T00:28:53;1.67;;;1.53;;
12367;SDS011;6248;49.812;6.620;2022-12-29T00:31:38;2.87;;;1.60;;
12367;SDS011;6248;49.812;6.620;2022-12-29T00:34:23;1.50;;;1.40;;
12367;SDS011;6248;49.812;6.620;2022-12-29T00:37:07;2.50;;;1.40;;
12367;SDS011;6248;49.812;6.620;2022-12-29T00:39:36;1.87;;;1.40;;
12367;SDS011;6248;49.812;6.620;2022-12-29T00:42:21;1.53;;;1.30;;
12367;SDS011;6248;49.812;6.620;2022-12-29T00:45:06;2.37;;;1.60;;
12367;SDS011;6248;49.812;6.620;2022-12-29T00:47:33;2.50;;;1.30;;
12367;SDS011;6248;49.812;6.620;2022-12-29T00:50:00;1.40;;;1.30;;
12367;SDS011;6248;49.812;6.620;2022-12-29T00:52:26;2.60;;;1.50;;
12367;SDS011;6248;49.812;6.620;2022-12-29T00:54:55;1.30;;;1.20;;
12367;SDS011;6248;49.812;6.620;2022-12-29T00:57:22;1.40;;;1.30;;
12367;SDS011;6248;49.812;6.620;2022-12-29T00:59:49;1.40;;;1.20;;
12367;SDS011;6248;49.812;6.620;2022-12-29T01:02:16;2.30;;;1.50;;
12367;SDS011;6248;49.812;6.620;2022-12-29T01:04:43;1.53;;;1.40;;
12367;SDS011;6248;49.812;6.620;2022-12-29T01:07:10;1.50;;;1.40;;
12367;SDS011;6248;49.812;6.620;2022-12-29T01:09:37;1.50;;;1.40;;
12367;SDS011;6248;49.812;6.620;2022-12-29T01:12:24;2.03;;;1.77;;
12367;SDS011;6248;49.812;6.620;2022-12-29T01:15:19;1.33;;;1.30;;
12367;SDS011;6248;49.812;6.620;2022-12-29T01:17:46;2.30;;;1.60;;
12367;SDS011;6248;49.812;6.620;2022-12-29T01:20:13;2.83;;;1.73;;
12367;SDS011;6248;49.812;6.620;2022-12-29T01:22:41;2.20;;;2.00;;
12367;SDS011;6248;49.812;6.620;2022-12-29T01:25:08;3.40;;;2.00;;
12367;SDS011;6248;49.812;6.620;2022-12-29T01:27:35;2.53;;;1.87;;
12367;SDS011;6248;49.812;6.620;2022-12-29T01:30:03;2.00;;;1.90;;
12367;SDS011;6248;49.812;6.620;2022-12-29T01:32:32;1.80;;;1.70;;
12367;SDS011;6248;49.812;6.620;2022-12-29T01:34:59;2.40;;;1.70;;
12367;SDS011;6248;49.812;6.620;2022-12-29T01:37:26;1.97;;;1.80;;
12367;SDS011;6248;49.812;6.620;2022-12-29T01:39:53;4.67;;;1.97;;
12367;SDS011;6248;49.812;6.620;2022-12-29T01:42:22;2.57;;;2.03;;
12367;SDS011;6248;49.812;6.620;2022-12-29T01:44:51;1.90;;;1.70;;
12367;SDS011;6248;49.812;6.620;2022-12-29T01:47:21;3.17;;;1.93;;
12367;SDS011;6248;49.812;6.620;2022-12-29T01:49:51;1.90;;;1.80;;
12367;SDS011;6248;49.812;6.620;2022-12-29T01:52:19;2.10;;;1.90;;
12367;SDS011;6248;49.812;6.620;2022-12-29T01:54:47;3.37;;;1.90;;
12367;SDS011;6248;49.812;6.620;2022-12-29T01:57:16;2.27;;;1.70;;
12367;SDS011;6248;49.812;6.620;2022-12-29T01:59:45;4.53;;;2.07;;
12367;SDS011;6248;49.812;6.620;2022-12-29T02:02:14;2.17;;;1.97;;
12367;SDS011;6248;49.812;6.620;2022-12-29T02:04:42;1.70;;;1.40;;
12367;SDS011;6248;49.812;6.620;2022-12-29T02:07:11;1.80;;;1.70;;
12367;SDS011;6248;49.812;6.620;2022-12-29T02:09:41;2.00;;;1.90;;
12367;SDS011;6248;49.812;6.620;2022-12-29T02:12:09;2.40;;;1.80;;
12367;SDS011;6248;49.812;6.620;2022-12-29T02:14:36;3.40;;;1.93;;
12367;SDS011;6248;49.812;6.620;2022-12-29T02:17:06;2.70;;;1.90;;
12367;SDS011;6248;49.812;6.620;2022-12-29T02:19:45;1.90;;;1.80;;
12367;SDS011;6248;49.812;6.620;2022-12-29T02:22:19;2.17;;;1.93;;
12367;SDS011;6248;49.812;6.620;2022-12-29T02:25:08;2.27;;;1.97;;
12367;SDS011;6248;49.812;6.620;2022-12-29T02:27:52;3.47;;;1.90;;
12367;SDS011;6248;49.812;6.620;2022-12-29T02:30:30;2.70;;;1.80;;
12367;SDS011;6248;49.812;6.620;2022-12-29T02:32:58;1.73;;;1.63;;
12367;SDS011;6248;49.812;6.620;2022-12-29T02:35:29;2.90;;;2.10;;
12367;SDS011;6248;49.812;6.620;2022-12-29T02:38:01;5.53;;;2.00;;
12367;SDS011;6248;49.812;6.620;2022-12-29T02:40:33;2.67;;;1.73;;
12367;SDS011;6248;49.812;6.620;2022-12-29T02:43:03;2.20;;;1.60;;
12367;SDS011;6248;49.812;6.620;2022-12-29T02:45:36;3.30;;;1.77;;
12367;SDS011;6248;49.812;6.620;2022-12-29T02:48:07;2.37;;;1.73;;
12367;SDS011;6248;49.812;6.620;2022-12-29T02:50:37;3.57;;;2.10;;
12367;SDS011;6248;49.812;6.620;2022-12-29T02:53:06;2.80;;;1.80;;
12367;SDS011;6248;49.812;6.620;2022-12-29T02:55:34;3.70;;;1.90;;
12367;SDS011;6248;49.812;6.620;2022-12-29T02:58:13;2.90;;;1.80;;
12367;SDS011;6248;49.812;6.620;2022-12-29T03:00:44;3.77;;;1.90;;
12367;SDS011;6248;49.812;6.620;2022-12-29T03:03:16;2.20;;;1.90;;
12367;SDS011;6248;49.812;6.620;2022-12-29T03:08:31;4.07;;;1.80;;
12367;SDS011;6248;49.812;6.620;2022-12-29T03:10:59;3.53;;;1.60;;
12367;SDS011;6248;49.812;6.620;2022-12-29T03:13:28;4.83;;;2.00;;
12367;SDS011;6248;49.812;6.620;2022-12-29T03:16:18;4.60;;;1.60;;
12367;SDS011;6248;49.812;6.620;2022-12-29T03:18:49;3.23;;;1.80;;
12367;SDS011;6248;49.812;6.620;2022-12-29T03:21:19;2.37;;;1.50;;
12367;SDS011;6248;49.812;6.620;2022-12-29T03:24:10;2.63;;;1.60;;
12367;SDS011;6248;49.812;6.620;2022-12-29T03:26:37;4.60;;;1.70;;
12367;SDS011;6248;49.812;6.620;2022-12-29T03:29:04;4.30;;;1.70;;
12367;SDS011;6248;49.812;6.620;2022-12-29T03:31:33;2.07;;;1.47;;
12367;SDS011;6248;49.812;6.620;2022-12-29T03:34:01;2.67;;;1.40;;
12367;SDS011;6248;49.812;6.620;2022-12-29T03:36:30;2.07;;;1.53;;
12367;SDS011;6248;49.812;6.620;2022-12-29T03:39:01;2.87;;;1.60;;
12367;SDS011;6248;49.812;6.620;2022-12-29T03:41:30;2.30;;;1.50;;
12367;SDS011;6248;49.812;6.620;2022-12-29T03:43:57;3.27;;;1.53;;
12367;SDS011;6248;49.812;6.620;2022-12-29T03:46:24;3.43;;;1.60;;
12367;SDS011;6248;49.812;6.620;2022-12-29T03:48:53;3.53;;;1.40;;
12367;SDS011;6248;49.812;6.620;2022-12-29T03:51:20;2.67;;;1.43;;
12367;SDS011;6248;49.812;6.620;2022-12-29T03:53:47;4.23;;;1.70;;
12367;SDS011;6248;49.812;6.620;2022-12-29T03:56:14;2.20;;;1.23;;
12367;SDS011;6248;49.812;6.620;2022-12-29T03:58:41;3.23;;;1.63;;
12367;SDS011;6248;49.812;6.620;2022-12-29T04:01:09;1.73;;;1.20;;
12367;SDS011;6248;49.812;6.620;2022-12-29T04:03:36;3.67;;;1.40;;
12367;SDS011;6248;49.812;6.620;2022-12-29T04:06:04;2.33;;;1.43;;
12367;SDS011;6248;49.812;6.620;2022-12-29T04:08:32;2.70;;;1.40;;
12367;SDS011;6248;49.812;6.620;2022-12-29T04:10:59;2.23;;;1.40;;
12367;SDS011;6248;49.812;6.620;2022-12-29T04:13:26;2.30;;;1.47;;
12367;SDS011;6248;49.812;6.620;2022-12-29T04:15:54;3.03;;;1.70;;
12367;SDS011;6248;49.812;6.620;2022-12-29T04:18:21;1.90;;;1.60;;
12367;SDS011;6248;49.812;6.620;2022-12-29T04:20:48;2.40;;;1.60;;
12367;SDS011;6248;49.812;6.620;2022-12-29T04:23:29;1.80;;;1.37;;
12367;SDS011;6248;49.812;6.620;2022-12-29T04:25:57;1.77;;;1.60;;
12367;SDS011;6248;49.812;6.620;2022-12-29T04:28:24;1.80;;;1.37;;
12367;SDS011;6248;49.812;6.620;2022-12-29T04:30:51;3.03;;;1.40;;
12367;SDS011;6248;49.812;6.620;2022-12-29T04:33:18;2.93;;;1.40;;
12367;SDS011;6248;49.812;6.620;2022-12-29T04:35:46;1.67;;;1.57;;
12367;SDS011;6248;49.812;6.620;2022-12-29T04:38:14;3.67;;;1.57;;
12367;SDS011;6248;49.812;6.620;2022-12-29T04:40:42;1.60;;;1.43;;
12367;SDS011;6248;49.812;6.620;2022-12-29T04:43:10;3.30;;;1.60;;
12367;SDS011;6248;49.812;6.620;2022-12-29T04:45:38;1.40;;;1.30;;
12367;SDS011;6248;49.812;6.620;2022-12-29T04:48:05;2.67;;;1.50;;
12367;SDS011;6248;49.812;6.620;2022-12-29T04:50:32;1.67;;;1.40;;
12367;SDS011;6248;49.812;6.620;2022-12-29T04:52:59;4.57;;;1.40;;
12367;SDS011;6248;49.812;6.620;2022-12-29T04:55:26;2.00;;;1.30;;
12367;SDS011;6248;49.812;6.620;2022-12-29T04:57:55;1.23;;;1.13;;
12367;SDS011;6248;49.812;6.620;2022-12-29T05:00:22;1.93;;;1.50;;
12367;SDS011;6248;49.812;6.620;2022-12-29T05:02:49;2.53;;;1.63;;
12367;SDS011;6248;49.812;6.620;2022-12-29T05:05:17;1.40;;;1.30;;
12367;SDS011;6248;49.812;6.620;2022-12-29T05:07:44;2.40;;;1.30;;
12367;SDS011;6248;49.812;6.620;2022-12-29T05:10:11;1.73;;;1.30;;
12367;SDS011;6248;49.812;6.620;2022-12-29T05:12:38;2.37;;;1.50;;
12367;SDS011;6248;49.812;6.620;2022-12-29T05:15:08;4.33;;;1.30;;
12367;SDS011;6248;49.812;6.620;2022-12-29T05:17:36;1.83;;;1.23;;
12367;SDS011;6248;49.812;6.620;2022-12-29T05:20:03;2.33;;;1.40;;
12367;SDS011;6248;49.812;6.620;2022-12-29T05:22:30;2.03;;;1.50;;
12367;SDS011;6248;49.812;6.620;2022-12-29T05:24:57;3.33;;;1.50;;
12367;SDS011;6248;49.812;6.620;2022-12-29T05:27:25;1.80;;;1.53;;
12367;SDS011;6248;49.812;6.620;2022-12-29T05:29:52;2.00;;;1.80;;
12367;SDS011;6248;49.812;6.620;2022-12-29T05:32:20;2.00;;;1.80;;
12367;SDS011;6248;49.812;6.620;2022-12-29T05:34:47;3.43;;;1.60;;
12367;SDS011;6248;49.812;6.620;2022-12-29T05:37:15;2.17;;;1.47;;
12367;SDS011;6248;49.812;6.620;2022-12-29T05:39:42;2.03;;;1.43;;
12367;SDS011;6248;49.812;6.620;2022-12-29T05:42:09;2.57;;;1.63;;
12367;SDS011;6248;49.812;6.620;2022-12-29T05:44:37;1.97;;;1.50;;
12367;SDS011;6248;49.812;6.620;2022-12-29T05:47:04;1.67;;;1.20;;
12367;SDS011;6248;49.812;6.620;2022-12-29T05:49:33;2.10;;;1.30;;
12367;SDS011;6248;49.812;6.620;2022-12-29T05:52:00;1.40;;;1.30;;
12367;SDS011;6248;49.812;6.620;2022-12-29T05:54:27;2.13;;;1.60;;
12367;SDS011;6248;49.812;6.620;2022-12-29T05:56:54;2.63;;;1.70;;
12367;SDS011;6248;49.812;6.620;2022-12-29T05:59:21;3.10;;;1.80;;
12367;SDS011;6248;49.812;6.620;2022-12-29T06:01:49;2.20;;;1.67;;
12367;SDS011;6248;49.812;6.620;2022-12-29T06:04:16;1.93;;;1.60;;
12367;SDS011;6248;49.812;6.620;2022-12-29T06:06:44;2.73;;;1.80;;
12367;SDS011;6248;49.812;6.620;2022-12-29T06:09:11;1.80;;;1.60;;
12367;SDS011;6248;49.812;6.620;2022-12-29T06:11:39;1.77;;;1.67;;
12367;SDS011;6248;49.812;6.620;2022-12-29T06:14:06;3.63;;;1.90;;
12367;SDS011;6248;49.812;6.620;2022-12-29T06:16:33;5.03;;;1.80;;
12367;SDS011;6248;49.812;6.620;2022-12-29T06:19:01;2.30;;;1.90;;
12367;SDS011;6248;49.812;6.620;2022-12-29T06:21:28;1.70;;;1.60;;
12367;SDS011;6248;49.812;6.620;2022-12-29T06:23:56;2.40;;;1.70;;
12367;SDS011;6248;49.812;6.620;2022-12-29T06:26:23;4.87;;;1.70;;
12367;SDS011;6248;49.812;6.620;2022-12-29T06:28:50;1.57;;;1.47;;
12367;SDS011;6248;49.812;6.620;2022-12-29T06:31:18;3.60;;;1.80;;
12367;SDS011;6248;49.812;6.620;2022-12-29T06:33:45;2.30;;;2.10;;
12367;SDS011;6248;49.812;6.620;2022-12-29T06:36:12;3.13;;;1.90;;
12367;SDS011;6248;49.812;6.620;2022-12-29T06:38:39;4.20;;;1.53;;
12367;SDS011;6248;49.812;6.620;2022-12-29T06:41:07;2.27;;;1.60;;
12367;SDS011;6248;49.812;6.620;2022-12-29T06:43:35;2.23;;;1.70;;
12367;SDS011;6248;49.812;6.620;2022-12-29T06:46:03;2.53;;;1.63;;
12367;SDS011;6248;49.812;6.620;2022-12-29T06:48:30;1.73;;;1.43;;
12367;SDS011;6248;49.812;6.620;2022-12-29T06:50:57;2.57;;;1.40;;
12367;SDS011;6248;49.812;6.620;2022-12-29T06:53:24;5.33;;;1.70;;
12367;SDS011;6248;49.812;6.620;2022-12-29T06:55:52;2.90;;;1.70;;
12367;SDS011;6248;49.812;6.620;2022-12-29T06:58:20;1.93;;;1.70;;
12367;SDS011;6248;49.812;6.620;2022-12-29T07:00:47;3.27;;;1.73;;
12367;SDS011;6248;49.812;6.620;2022-12-29T07:03:14;2.67;;;1.43;;
12367;SDS011;6248;49.812;6.620;2022-12-29T07:05:42;2.30;;;1.77;;
12367;SDS011;6248;49.812;6.620;2022-12-29T07:08:09;3.93;;;1.80;;
12367;SDS011;6248;49.812;6.620;2022-12-29T07:10:36;2.80;;;1.83;;
12367;SDS011;6248;49.812;6.620;2022-12-29T07:13:03;3.13;;;1.70;;
12367;SDS011;6248;49.812;6.620;2022-12-29T07:15:34;3.70;;;1.63;;
12367;SDS011;6248;49.812;6.620;2022-12-29T07:18:01;2.77;;;1.70;;
12367;SDS011;6248;49.812;6.620;2022-12-29T07:20:28;1.50;;;1.40;;
12367;SDS011;6248;49.812;6.620;2022-12-29T07:22:55;1.50;;;1.40;;
12367;SDS011;6248;49.812;6.620;2022-12-29T07:25:23;2.90;;;2.13;;
12367;SDS011;6248;49.812;6.620;2022-12-29T07:27:50;2.13;;;1.57;;
12367;SDS011;6248;49.812;6.620;2022-12-29T07:30:17;1.67;;;1.43;;
12367;SDS011;6248;49.812;6.620;2022-12-29T07:32:45;1.70;;;1.60;;
12367;SDS011;6248;49.812;6.620;2022-12-29T07:35:13;1.97;;;1.60;;
12367;SDS011;6248;49.812;6.620;2022-12-29T07:37:40;4.00;;;1.67;;
12367;SDS011;6248;49.812;6.620;2022-12-29T07:40:08;1.83;;;1.50;;
12367;SDS011;6248;49.812;6.620;2022-12-29T07:42:35;3.03;;;1.87;;
12367;SDS011;6248;49.812;6.620;2022-12-29T07:45:03;2.40;;;1.70;;
12367;SDS011;6248;49.812;6.620;2022-12-29T07:47:30;1.73;;;1.50;;
12367;SDS011;6248;49.812;6.620;2022-12-29T07:49:58;2.10;;;1.63;;
12367;SDS011;6248;49.812;6.620;2022-12-29T07:52:26;2.83;;;1.60;;
12367;SDS011;6248;49.812;6.620;2022-12-29T07:54:53;3.70;;;2.70;;
12367;SDS011;6248;49.812;6.620;2022-12-29T07:57:20;3.00;;;2.20;;
12367;SDS011;6248;49.812;6.620;2022-12-29T07:59:47;3.17;;;2.20;;
12367;SDS011;6248;49.812;6.620;2022-12-29T08:02:14;1.97;;;1.70;;
12367;SDS011;6248;49.812;6.620;2022-12-29T08:04:41;3.13;;;1.80;;
12367;SDS011;6248;49.812;6.620;2022-12-29T08:07:10;4.17;;;1.50;;
12367;SDS011;6248;49.812;6.620;2022-12-29T08:09:37;2.43;;;1.60;;
12367;SDS011;6248;49.812;6.620;2022-12-29T08:12:04;1.27;;;1.20;;
12367;SDS011;6248;49.812;6.620;2022-12-29T08:14:31;2.23;;;1.57;;
12367;SDS011;6248;49.812;6.620;2022-12-29T08:16:58;1.70;;;1.20;;
12367;SDS011;6248;49.812;6.620;2022-12-29T08:19:25;2.13;;;1.43;;
12367;SDS011;6248;49.812;6.620;2022-12-29T08:21:53;2.90;;;1.20;;
12367;SDS011;6248;49.812;6.620;2022-12-29T08:24:21;1.23;;;1.10;;
12367;SDS011;6248;49.812;6.620;2022-12-29T08:26:48;1.40;;;1.30;;
12367;SDS011;6248;49.812;6.620;2022-12-29T08:29:15;2.23;;;1.10;;
12367;SDS011;6248;49.812;6.620;2022-12-29T08:31:42;1.30;;;1.00;;
12367;SDS011;6248;49.812;6.620;2022-12-29T08:34:10;2.47;;;1.20;;
12367;SDS011;6248;49.812;6.620;2022-12-29T08:36:37;3.83;;;1.23;;
12367;SDS011;6248;49.812;6.620;2022-12-29T08:39:04;1.87;;;1.00;;
12367;SDS011;6248;49.812;6.620;2022-12-29T08:41:33;1.83;;;1.10;;
12367;SDS011;6248;49.812;6.620;2022-12-29T08:44:00;1.87;;;0.93;;
12367;SDS011;6248;49.812;6.620;2022-12-29T08:46:27;1.83;;;0.87;;
12367;SDS011;6248;49.812;6.620;2022-12-29T08:48:54;1.10;;;1.00;;
12367;SDS011;6248;49.812;6.620;2022-12-29T08:51:21;2.20;;;1.20;;
12367;SDS011;6248;49.812;6.620;2022-12-29T08:53:48;3.80;;;2.40;;
12367;SDS011;6248;49.812;6.620;2022-12-29T08:56:16;1.80;;;1.40;;
12367;SDS011;6248;49.812;6.620;2022-12-29T08:58:44;2.77;;;1.70;;
12367;SDS011;6248;49.812;6.620;2022-12-29T09:01:11;2.93;;;1.60;;
12367;SDS011;6248;49.812;6.620;2022-12-29T09:03:38;0.93;;;0.83;;
12367;SDS011;6248;49.812;6.620;2022-12-29T09:06:06;1.73;;;0.90;;
12367;SDS011;6248;49.812;6.620;2022-12-29T09:08:33;1.17;;;0.70;;
12367;SDS011;6248;49.812;6.620;2022-12-29T09:11:05;2.33;;;0.80;;
12367;SDS011;6248;49.812;6.620;2022-12-29T09:13:33;1.67;;;0.90;;
12367;SDS011;6248;49.812;6.620;2022-12-29T09:16:01;1.73;;;1.07;;
12367;SDS011;6248;49.812;6.620;2022-12-29T09:18:29;2.73;;;1.53;;
12367;SDS011;6248;49.812;6.620;2022-12-29T09:20:56;2.83;;;1.87;;
12367;SDS011;6248;49.812;6.620;2022-12-29T09:23:24;3.00;;;1.63;;
12367;SDS011;6248;49.812;6.620;2022-12-29T09:25:51;4.90;;;2.90;;
12367;SDS011;6248;49.812;6.620;2022-12-29T09:28:18;2.00;;;1.77;;
12367;SDS011;6248;49.812;6.620;2022-12-29T09:30:45;2.70;;;1.00;;
12367;SDS011;6248;49.812;6.620;2022-12-29T09:33:14;2.47;;;0.80;;
12367;SDS011;6248;49.812;6.620;2022-12-29T09:35:41;3.30;;;0.73;;
12367;SDS011;6248;49.812;6.620;2022-12-29T09:38:09;3.50;;;1.00;;
12367;SDS011;6248;49.812;6.620;2022-12-29T09:40:36;2.83;;;1.00;;
12367;SDS011;6248;49.812;6.620;2022-12-29T09:43:14;2.93;;;0.93;;
12367;SDS011;6248;49.812;6.620;2022-12-29T09:45:44;2.67;;;1.00;;
12367;SDS011;6248;49.812;6.620;2022-12-29T09:48:16;2.77;;;0.93;;
12367;SDS011;6248;49.812;6.620;2022-12-29T09:50:46;3.23;;;0.97;;
12367;SDS011;6248;49.812;6.620;2022-12-29T09:53:15;2.20;;;0.90;;
12367;SDS011;6248;49.812;6.620;2022-12-29T09:55:44;3.73;;;1.20;;
12367;SDS011;6248;49.812;6.620;2022-12-29T09:58:15;3.60;;;1.07;;
12367;SDS011;6248;49.812;6.620;2022-12-29T10:00:47;3.20;;;1.27;;
12367;SDS011;6248;49.812;6.620;2022-12-29T10:03:17;4.17;;;1.50;;
12367;SDS011;6248;49.812;6.620;2022-12-29T10:05:46;2.93;;;0.90;;
12367;SDS011;6248;49.812;6.620;2022-12-29T10:08:18;4.80;;;1.20;;
12367;SDS011;6248;49.812;6.620;2022-12-29T10:10:50;6.70;;;1.40;;
12367;SDS011;6248;49.812;6.620;2022-12-29T10:13:24;4.03;;;1.17;;
12367;SDS011;6248;49.812;6.620;2022-12-29T10:15:56;4.60;;;1.37;;
12367;SDS011;6248;49.812;6.620;2022-12-29T10:18:35;3.67;;;1.30;;
12367;SDS011;6248;49.812;6.620;2022-12-29T10:21:07;3.27;;;1.17;;
12367;SDS011;6248;49.812;6.620;2022-12-29T10:23:36;3.97;;;1.60;;
12367;SDS011;6248;49.812;6.620;2022-12-29T10:26:07;5.50;;;1.50;;
12367;SDS011;6248;49.812;6.620;2022-12-29T10:28:37;4.03;;;1.40;;
12367;SDS011;6248;49.812;6.620;2022-12-29T10:31:07;3.40;;;0.90;;
12367;SDS011;6248;49.812;6.620;2022-12-29T10:33:38;3.53;;;1.13;;
12367;SDS011;6248;49.812;6.620;2022-12-29T10:36:10;8.03;;;1.97;;
12367;SDS011;6248;49.812;6.620;2022-12-29T10:38:40;4.23;;;1.30;;
12367;SDS011;6248;49.812;6.620;2022-12-29T10:41:11;3.87;;;1.17;;
12367;SDS011;6248;49.812;6.620;2022-12-29T10:43:42;2.13;;;0.97;;
12367;SDS011;6248;49.812;6.620;2022-12-29T10:46:10;2.73;;;1.00;;
12367;SDS011;6248;49.812;6.620;2022-12-29T10:48:40;3.87;;;1.00;;
12367;SDS011;6248;49.812;6.620;2022-12-29T10:51:10;3.17;;;0.97;;
12367;SDS011;6248;49.812;6.620;2022-12-29T10:53:38;2.33;;;1.17;;
12367;SDS011;6248;49.812;6.620;2022-12-29T10:56:09;3.17;;;0.90;;
12367;SDS011;6248;49.812;6.620;2022-12-29T10:58:40;2.37;;;0.90;;
12367;SDS011;6248;49.812;6.620;2022-12-29T11:01:07;4.40;;;1.30;;
12367;SDS011;6248;49.812;6.620;2022-12-29T11:03:41;3.87;;;1.07;;
12367;SDS011;6248;49.812;6.620;2022-12-29T11:06:12;3.37;;;0.93;;
12367;SDS011;6248;49.812;6.620;2022-12-29T11:08:45;4.67;;;1.27;;
12367;SDS011;6248;49.812;6.620;2022-12-29T11:11:14;4.20;;;1.33;;
12367;SDS011;6248;49.812;6.620;2022-12-29T11:13:49;3.93;;;1.30;;
12367;SDS011;6248;49.812;6.620;2022-12-29T11:16:23;4.73;;;1.33;;
12367;SDS011;6248;49.812;6.620;2022-12-29T11:18:56;2.97;;;1.03;;
12367;SDS011;6248;49.812;6.620;2022-12-29T11:21:25;4.33;;;1.30;;
12367;SDS011;6248;49.812;6.620;2022-12-29T11:23:55;4.63;;;1.20;;
12367;SDS011;6248;49.812;6.620;2022-12-29T11:26:23;2.17;;;0.90;;
12367;SDS011;6248;49.812;6.620;2022-12-29T11:29:05;4.37;;;1.53;;
12367;SDS011;6248;49.812;6.620;2022-12-29T11:31:39;3.23;;;1.00;;
12367;SDS011;6248;49.812;6.620;2022-12-29T11:34:08;5.03;;;1.00;;
12367;SDS011;6248;49.812;6.620;2022-12-29T11:36:35;3.17;;;1.10;;
12367;SDS011;6248;49.812;6.620;2022-12-29T11:39:02;1.87;;;0.83;;
12367;SDS011;6248;49.812;6.620;2022-12-29T11:41:30;4.50;;;1.37;;
12367;SDS011;6248;49.812;6.620;2022-12-29T11:43:59;3.20;;;1.40;;
12367;SDS011;6248;49.812;6.620;2022-12-29T11:46:27;3.37;;;1.37;;
12367;SDS011;6248;49.812;6.620;2022-12-29T11:48:54;4.30;;;1.53;;
12367;SDS011;6248;49.812;6.620;2022-12-29T11:51:27;4.40;;;1.40;;
12367;SDS011;6248;49.812;6.620;2022-12-29T11:53:55;3.57;;;1.30;;
12367;SDS011;6248;49.812;6.620;2022-12-29T11:56:32;1.73;;;1.03;;
12367;SDS011;6248;49.812;6.620;2022-12-29T12:01:42;3.50;;;1.40;;
12367;SDS011;6248;49.812;6.620;2022-12-29T12:04:10;4.17;;;1.53;;
12367;SDS011;6248;49.812;6.620;2022-12-29T12:06:41;4.97;;;1.67;;
12367;SDS011;6248;49.812;6.620;2022-12-29T12:09:14;4.70;;;1.30;;
12367;SDS011;6248;49.812;6.620;2022-12-29T12:11:43;3.20;;;1.60;;
12367;SDS011;6248;49.812;6.620;2022-12-29T12:14:11;2.90;;;1.50;;
12367;SDS011;6248;49.812;6.620;2022-12-29T12:16:40;3.63;;;1.40;;
12367;SDS011;6248;49.812;6.620;2022-12-29T12:19:10;2.80;;;1.10;;
12367;SDS011;6248;49.812;6.620;2022-12-29T12:21:41;3.67;;;1.50;;
12367;SDS011;6248;49.812;6.620;2022-12-29T12:24:18;3.90;;;1.30;;
12367;SDS011;6248;49.812;6.620;2022-12-29T12:26:53;1.80;;;1.13;;
12367;SDS011;6248;49.812;6.620;2022-12-29T12:29:22;2.53;;;1.50;;
12367;SDS011;6248;49.812;6.620;2022-12-29T12:31:52;3.90;;;1.50;;
12367;SDS011;6248;49.812;6.620;2022-12-29T12:34:23;3.93;;;1.30;;
12367;SDS011;6248;49.812;6.620;2022-12-29T12:37:02;2.70;;;1.20;;
12367;SDS011;6248;49.812;6.620;2022-12-29T12:39:32;4.90;;;1.20;;
12367;SDS011;6248;49.812;6.620;2022-12-29T12:42:05;3.40;;;1.23;;
12367;SDS011;6248;49.812;6.620;2022-12-29T12:44:36;3.67;;;1.40;;
12367;SDS011;6248;49.812;6.620;2022-12-29T12:49:57;4.17;;;1.50;;
12367;SDS011;6248;49.812;6.620;2022-12-29T12:52:33;2.97;;;1.20;;
12367;SDS011;6248;49.812;6.620;2022-12-29T12:55:10;6.20;;;1.70;;
12367;SDS011;6248;49.812;6.620;2022-12-29T12:57:45;3.87;;;1.40;;
12367;SDS011;6248;49.812;6.620;2022-12-29T13:00:16;3.07;;;1.50;;
12367;SDS011;6248;49.812;6.620;2022-12-29T13:02:49;4.63;;;1.60;;
12367;SDS011;6248;49.812;6.620;2022-12-29T13:05:29;3.37;;;1.20;;
12367;SDS011;6248;49.812;6.620;2022-12-29T13:08:02;4.50;;;1.60;;
12367;SDS011;6248;49.812;6.620;2022-12-29T13:10:34;3.60;;;1.53;;
12367;SDS011;6248;49.812;6.620;2022-12-29T13:15:46;3.13;;;1.27;;
12367;SDS011;6248;49.812;6.620;2022-12-29T13:18:19;3.23;;;1.17;;
12367;SDS011;6248;49.812;6.620;2022-12-29T13:20:52;2.97;;;2.00;;
12367;SDS011;6248;49.812;6.620;2022-12-29T13:23:23;3.97;;;1.87;;
12367;SDS011;6248;49.812;6.620;2022-12-29T13:25:54;6.90;;;2.23;;
12367;SDS011;6248;49.812;6.620;2022-12-29T13:28:26;5.57;;;1.57;;
12367;SDS011;6248;49.812;6.620;2022-12-29T13:30:57;6.50;;;1.67;;
12367;SDS011;6248;49.812;6.620;2022-12-29T13:33:28;4.67;;;1.73;;
12367;SDS011;6248;49.812;6.620;2022-12-29T13:36:02;5.67;;;1.57;;
12367;SDS011;6248;49.812;6.620;2022-12-29T13:38:34;4.77;;;1.60;;
12367;SDS011;6248;49.812;6.620;2022-12-29T13:41:03;3.70;;;1.30;;
12367;SDS011;6248;49.812;6.620;2022-12-29T13:43:32;3.20;;;1.30;;
12367;SDS011;6248;49.812;6.620;2022-12-29T13:46:02;4.13;;;1.33;;
12367;SDS011;6248;49.812;6.620;2022-12-29T13:48:35;5.20;;;1.43;;
12367;SDS011;6248;49.812;6.620;2022-12-29T13:51:02;4.17;;;1.40;;
12367;SDS011;6248;49.812;6.620;2022-12-29T13:53:33;4.97;;;1.40;;
12367;SDS011;6248;49.812;6.620;2022-12-29T13:56:05;4.60;;;1.30;;
12367;SDS011;6248;49.812;6.620;2022-12-29T13:58:34;3.50;;;1.47;;
12367;SDS011;6248;49.812;6.620;2022-12-29T14:01:07;3.93;;;1.20;;
12367;SDS011;6248;49.812;6.620;2022-12-29T14:03:47;4.10;;;1.27;;
12367;SDS011;6248;49.812;6.620;2022-12-29T14:06:17;4.87;;;1.27;;
12367;SDS011;6248;49.812;6.620;2022-12-29T14:08:45;2.87;;;1.30;;
12367;SDS011;6248;49.812;6.620;2022-12-29T14:11:15;5.17;;;1.57;;
12367;SDS011;6248;49.812;6.620;2022-12-29T14:13:44;5.67;;;1.60;;
12367;SDS011;6248;49.812;6.620;2022-12-29T14:16:21;6.17;;;1.50;;
12367;SDS011;6248;49.812;6.620;2022-12-29T14:18:51;5.20;;;1.63;;
12367;SDS011;6248;49.812;6.620;2022-12-29T14:21:19;5.43;;;1.43;;
12367;SDS011;6248;49.812;6.620;2022-12-29T14:23:49;5.47;;;1.47;;
12367;SDS011;6248;49.812;6.620;2022-12-29T14:26:18;4.87;;;1.47;;
12367;SDS011;6248;49.812;6.620;2022-12-29T14:31:41;5.13;;;1.50;;
12367;SDS011;6248;49.812;6.620;2022-12-29T14:34:15;6.83;;;1.93;;
12367;SDS011;6248;49.812;6.620;2022-12-29T14:36:45;5.70;;;1.93;;
12367;SDS011;6248;49.812;6.620;2022-12-29T14:39:33;6.17;;;1.50;;
12367;SDS011;6248;49.812;6.620;2022-12-29T14:42:03;5.27;;;1.73;;
12367;SDS011;6248;49.812;6.620;2022-12-29T14:44:31;9.43;;;1.97;;
12367;SDS011;6248;49.812;6.620;2022-12-29T14:46:59;8.53;;;2.00;;
12367;SDS011;6248;49.812;6.620;2022-12-29T14:49:28;5.47;;;1.90;;
12367;SDS011;6248;49.812;6.620;2022-12-29T14:52:04;6.67;;;1.97;;
12367;SDS011;6248;49.812;6.620;2022-12-29T14:54:45;7.03;;;2.00;;
12367;SDS011;6248;49.812;6.620;2022-12-29T14:57:19;9.30;;;2.30;;
12367;SDS011;6248;49.812;6.620;2022-12-29T14:59:47;3.87;;;1.57;;
12367;SDS011;6248;49.812;6.620;2022-12-29T15:02:16;6.40;;;2.03;;
12367;SDS011;6248;49.812;6.620;2022-12-29T15:04:43;6.00;;;1.97;;
12367;SDS011;6248;49.812;6.620;2022-12-29T15:07:11;4.77;;;1.80;;
12367;SDS011;6248;49.812;6.620;2022-12-29T15:09:39;5.90;;;2.13;;
12367;SDS011;6248;49.812;6.620;2022-12-29T15:12:15;4.93;;;1.27;;
12367;SDS011;6248;49.812;6.620;2022-12-29T15:14:51;6.17;;;1.60;;
12367;SDS011;6248;49.812;6.620;2022-12-29T15:17:23;5.67;;;1.67;;
12367;SDS011;6248;49.812;6.620;2022-12-29T15:19:50;5.90;;;1.50;;
12367;SDS011;6248;49.812;6.620;2022-12-29T15:22:18;5.80;;;1.83;;
12367;SDS011;6248;49.812;6.620;2022-12-29T15:24:45;4.50;;;1.50;;
12367;SDS011;6248;49.812;6.620;2022-12-29T15:27:13;7.13;;;1.50;;
12367;SDS011;6248;49.812;6.620;2022-12-29T15:29:41;6.17;;;1.47;;